createdAt,value
2019-05-11T00:02:01.065Z,95951.00
2019-05-11T00:07:03.536Z,95948.00
2019-05-11T00:12:06.299Z,95937.00
2019-05-11T00:17:08.735Z,95929.00
2019-05-11T00:22:11.256Z,95911.00
2019-05-11T00:27:13.745Z,95894.00
2019-05-11T00:32:16.355Z,95904.00
2019-05-11T00:37:18.739Z,95900.00
2019-05-11T00:42:21.130Z,95897.00
2019-05-11T00:47:23.908Z,95896.00
2019-05-11T00:52:26.445Z,95896.00
2019-05-11T00:57:28.866Z,95890.00
2019-05-11T01:02:31.310Z,95868.00
2019-05-11T01:07:33.819Z,95874.00
2019-05-11T01:12:36.496Z,95864.00
2019-05-11T01:17:39.119Z,95857.00
2019-05-11T01:22:41.875Z,95859.00
2019-05-11T01:27:45.225Z,95853.00
2019-05-11T01:32:47.595Z,95846.00
2019-05-11T01:37:50.020Z,95854.00
2019-05-11T01:42:52.613Z,95865.00
2019-05-11T01:47:55.098Z,95847.00
2019-05-11T01:52:57.540Z,95850.00
2019-05-11T01:57:59.884Z,95846.00
2019-05-11T02:03:02.384Z,95842.00
2019-05-11T02:08:04.679Z,95842.00
2019-05-11T02:13:07.568Z,95847.00
2019-05-11T02:18:10.590Z,95834.00
2019-05-11T02:23:13.102Z,95840.00
2019-05-11T02:50:59.785Z,95787.00
2019-05-11T02:56:16.831Z,95775.00
2019-05-11T03:01:29.080Z,95774.00
2019-05-11T03:11:57.861Z,95795.00
2019-05-11T03:17:21.444Z,95792.00
2019-05-11T03:22:24.127Z,95782.00
2019-05-11T03:27:28.680Z,95783.00
2019-05-11T03:32:47.627Z,95770.00
2019-05-11T03:37:51.634Z,95758.00
2019-05-11T03:42:54.120Z,95741.00
2019-05-11T03:47:56.908Z,95732.00
2019-05-11T03:53:13.299Z,95729.00
2019-05-11T03:58:15.800Z,95707.00
2019-05-11T04:03:19.042Z,95721.00
2019-05-11T04:08:21.512Z,95717.00
2019-05-11T04:13:37.785Z,95693.00
2019-05-11T04:18:41.342Z,95686.00
2019-05-11T04:23:43.824Z,95691.00
2019-05-11T04:28:46.527Z,95677.00
2019-05-11T04:34:01.131Z,95674.00
2019-05-11T04:39:05.733Z,95683.00
2019-05-11T04:44:21.127Z,95683.00
2019-05-11T04:49:43.419Z,95683.00
2019-05-11T04:54:47.909Z,95691.00
2019-05-11T04:59:51.439Z,95700.00
2019-05-11T05:05:02.417Z,95708.00
2019-05-11T05:10:27.332Z,95704.00
2019-05-11T05:15:30.697Z,95718.00
2019-05-11T05:25:59.941Z,95711.00
2019-05-11T05:31:02.649Z,95703.00
2019-05-11T05:36:05.315Z,95700.00
2019-05-11T05:41:14.412Z,95711.00
2019-05-11T05:46:31.579Z,95707.00
2019-05-11T05:51:34.447Z,95691.00
2019-05-11T05:56:39.925Z,95695.00
2019-05-11T06:01:42.571Z,95691.00
2019-05-11T06:06:45.814Z,95694.00
2019-05-11T06:11:48.451Z,95691.00
2019-05-11T06:16:51.169Z,95692.00
2019-05-11T06:21:55.507Z,95690.00
2019-05-11T06:26:57.909Z,95684.00
2019-05-11T06:32:00.435Z,95670.00
2019-05-11T06:37:02.863Z,95670.00
2019-05-11T06:42:05.605Z,95676.00
2019-05-11T06:47:08.091Z,95681.00
2019-05-11T06:52:10.651Z,95676.00
2019-05-11T06:57:13.183Z,95664.00
2019-05-11T07:02:15.588Z,95654.00
2019-05-11T07:07:19.125Z,95684.00
2019-05-11T07:12:22.450Z,95679.00
2019-05-11T07:17:25.670Z,95683.00
2019-05-11T07:22:28.756Z,95673.00
2019-05-11T07:27:31.167Z,95674.00
2019-05-11T07:32:35.239Z,95679.00
2019-05-11T07:37:38.480Z,95692.00
2019-05-11T07:42:41.594Z,95690.00
2019-05-11T07:54:05.079Z,95663.00
2019-05-11T07:59:08.066Z,95670.00
2019-05-11T08:04:18.313Z,95672.00
2019-05-11T08:09:22.111Z,95665.00
2019-05-11T08:14:59.071Z,95675.00
2019-05-11T08:19:49.629Z,95673.00
2019-05-11T08:24:53.400Z,95679.00
2019-05-11T08:30:08.428Z,95668.00
2019-05-11T08:35:18.024Z,95658.00
2019-05-11T08:40:38.477Z,95653.00
2019-05-11T08:45:57.691Z,95645.00
2019-05-11T08:51:01.257Z,95658.00
2019-05-11T08:56:03.765Z,95644.00
2019-05-11T09:01:08.628Z,95647.00
2019-05-11T09:06:31.863Z,95643.00
2019-05-11T09:11:35.116Z,95639.00
2019-05-11T09:16:38.567Z,95641.00
2019-05-11T09:21:41.191Z,95640.00
2019-05-11T09:26:43.616Z,95650.00
2019-05-11T09:31:46.092Z,95664.00
2019-05-11T09:36:48.449Z,95653.00
2019-05-11T09:41:50.891Z,95647.00
2019-05-11T09:46:53.559Z,95641.00
2019-05-11T09:51:59.880Z,95637.00
2019-05-11T09:57:02.345Z,95637.00
2019-05-11T10:02:04.990Z,95629.00
2019-05-11T10:07:08.998Z,95627.00
2019-05-11T10:12:11.831Z,95631.00
2019-05-11T10:17:15.502Z,95609.00
2019-05-11T10:22:18.652Z,95625.00
2019-05-11T10:27:21.141Z,95632.00
2019-05-11T10:32:24.792Z,95620.00
2019-05-11T10:37:29.763Z,95603.00
2019-05-11T10:42:33.348Z,95607.00
2019-05-11T10:47:38.155Z,95609.00
2019-05-11T10:52:40.393Z,95595.00
2019-05-11T10:57:42.831Z,95602.00
2019-05-11T11:02:47.580Z,95605.00
2019-05-11T11:07:49.612Z,95612.00
2019-05-11T11:12:52.044Z,95615.00
2019-05-11T11:17:54.995Z,95632.00
2019-05-11T11:22:58.329Z,95624.00
2019-05-11T11:28:00.995Z,95646.00
2019-05-11T11:33:03.375Z,95638.00
2019-05-11T11:38:05.992Z,95624.00
2019-05-11T11:43:08.852Z,95611.00
2019-05-11T11:48:11.867Z,95612.00
2019-05-11T11:53:16.198Z,95620.00
2019-05-11T11:58:23.716Z,95610.00
2019-05-11T12:03:24.878Z,95615.00
2019-05-11T12:08:28.390Z,95604.00
2019-05-11T12:13:31.017Z,95615.00
2019-05-11T12:18:33.553Z,95628.00
2019-05-11T12:23:38.213Z,95648.00
2019-05-11T12:28:40.495Z,95691.00
2019-05-11T12:33:42.951Z,95696.00
2019-05-11T12:38:46.057Z,95702.00
2019-05-11T12:43:52.005Z,95711.00
2019-05-11T12:48:57.256Z,95684.00
2019-05-11T12:53:59.489Z,95681.00
2019-05-11T12:59:02.158Z,95689.00
2019-05-11T13:04:05.530Z,95687.00
2019-05-11T13:09:08.061Z,95686.00
2019-05-11T13:14:10.558Z,95682.00
2019-05-11T13:19:13.206Z,95667.00
2019-05-11T13:24:18.819Z,95658.00
2019-05-11T13:29:21.834Z,95678.00
2019-05-11T13:34:38.762Z,95671.00
2019-05-11T13:39:41.897Z,95654.00
2019-05-11T13:44:44.397Z,95666.00
2019-05-11T13:49:47.996Z,95674.00
2019-05-11T13:54:50.673Z,95678.00
2019-05-11T13:59:54.277Z,95689.00
2019-05-11T14:04:58.443Z,95700.00
2019-05-11T14:10:01.016Z,95689.00
2019-05-11T14:15:08.340Z,95703.00
2019-05-11T14:20:10.200Z,95722.00
2019-05-11T14:25:13.200Z,95716.00
2019-05-11T14:30:18.398Z,95726.00
2019-05-11T14:35:20.824Z,95746.00
2019-05-11T14:40:23.522Z,95755.00
2019-05-11T14:45:28.623Z,95759.00
2019-05-11T14:50:30.962Z,95773.00
2019-05-11T14:55:33.602Z,95776.00
2019-05-11T15:00:38.954Z,95784.00
2019-05-11T15:05:41.642Z,95792.00
2019-05-11T15:10:44.330Z,95794.00
2019-05-11T15:15:51.653Z,95803.00
2019-05-11T15:20:54.320Z,95799.00
2019-05-11T15:25:58.660Z,95817.00
2019-05-11T15:31:01.438Z,95809.00
2019-05-11T15:36:03.938Z,95811.00
2019-05-11T15:41:08.339Z,95822.00
2019-05-11T15:46:11.232Z,95835.00
2019-05-11T15:51:13.768Z,95847.00
2019-05-11T15:56:18.788Z,95857.00
2019-05-11T16:01:20.500Z,95853.00
2019-05-11T16:06:22.975Z,95874.00
2019-05-11T16:11:25.399Z,95876.00
2019-05-11T16:16:28.200Z,95886.00
2019-05-11T16:21:31.955Z,95886.00
2019-05-11T16:26:34.416Z,95879.00
2019-05-11T16:31:37.894Z,95884.00
2019-05-11T16:36:40.840Z,95893.00
2019-05-11T16:41:43.371Z,95900.00
2019-05-11T16:46:48.016Z,95902.00
2019-05-11T16:51:50.531Z,95903.00
2019-05-11T16:56:53.205Z,95912.00
2019-05-11T17:01:55.735Z,95916.00
2019-05-11T17:06:58.244Z,95916.00
2019-05-11T17:12:00.763Z,95952.00
2019-05-11T17:17:03.290Z,95977.00
2019-05-11T17:22:08.169Z,95939.00
2019-05-11T17:27:10.412Z,96023.00
2019-05-11T17:32:13.068Z,96027.00
2019-05-11T17:37:18.220Z,96052.00
2019-05-11T17:42:20.646Z,96053.00
2019-05-11T17:47:23.833Z,96049.00
2019-05-11T17:52:28.216Z,96043.00
2019-05-11T17:57:30.874Z,96041.00
2019-05-11T18:02:33.475Z,96042.00
2019-05-11T18:07:38.597Z,96036.00
2019-05-11T18:12:40.940Z,96033.00
2019-05-11T18:17:43.551Z,96041.00
2019-05-11T18:22:45.927Z,96046.00
2019-05-11T18:27:48.556Z,96054.00
2019-05-11T18:32:50.978Z,96051.00
2019-05-11T18:37:53.771Z,96052.00
2019-05-11T18:42:57.877Z,96049.00
2019-05-11T18:48:00.720Z,96056.00
2019-05-11T18:53:04.426Z,96064.00
2019-05-11T18:58:07.327Z,96070.00
2019-05-11T19:03:09.912Z,96079.00
2019-05-11T19:08:12.590Z,96108.00
2019-05-11T19:13:15.129Z,96120.00
2019-05-11T19:18:17.934Z,96115.00
2019-05-11T19:23:20.421Z,96120.00
2019-05-11T19:28:22.988Z,96122.00
2019-05-11T19:33:27.666Z,96127.00
2019-05-11T19:38:29.835Z,96130.00
2019-05-11T19:43:34.637Z,96131.00
2019-05-11T19:48:38.441Z,96134.00
2019-05-11T19:53:41.741Z,96144.00
2019-05-11T19:58:44.243Z,96154.00
2019-05-11T20:03:46.707Z,96159.00
2019-05-11T20:08:49.147Z,96170.00
2019-05-11T20:13:51.608Z,96175.00
2019-05-11T20:18:54.133Z,96184.00
2019-05-11T20:23:57.790Z,96184.00
2019-05-11T20:29:00.409Z,96190.00
2019-05-11T20:34:02.880Z,96200.00
2019-05-11T20:39:07.415Z,96208.00
2019-05-11T20:44:11.912Z,96227.00
2019-05-11T20:49:21.587Z,96204.00
2019-05-11T20:54:24.059Z,96215.00
2019-05-11T20:59:28.736Z,96214.00
2019-05-11T21:04:31.571Z,96209.00
2019-05-11T21:09:34.147Z,96220.00
2019-05-11T21:14:38.639Z,96221.00
2019-05-11T21:19:42.728Z,96222.00
2019-05-11T21:48:06.097Z,96265.00
2019-05-11T21:59:08.823Z,96263.00
2019-05-11T22:04:48.001Z,96273.00
2019-05-11T22:16:23.148Z,96281.00
2019-05-11T22:21:27.835Z,96291.00
2019-05-11T22:26:30.008Z,96287.00
2019-05-11T22:31:32.883Z,96286.00
2019-05-11T22:36:38.554Z,96289.00
2019-05-11T22:47:28.437Z,96309.00
2019-05-11T22:52:36.217Z,96313.00
2019-05-11T23:04:07.963Z,96325.00
2019-05-11T23:43:33.929Z,96321.00
2019-05-11T23:54:45.396Z,96329.00
